Time;durP1;ratioP1;P1;durP2;ratioP2;P2;SDS_P1;SDS_P2;PMS_P1;PMS_P2;Temp;Humidity;BMP_temperature;BMP_pressure;BME280_temperature;BME280_humidity;BME280_pressure;Samples;Min_cycle;Max_cycle;Signal;HPM_P1;HPM_P2
2023/01/31 00:01:51;;;;;;;5.40;0.77;;;5.60;99.90;;;;;;4894667;29;20506;-70
2023/01/31 00:04:19;;;;;;;1.87;1.13;;;5.50;99.90;;;;;;4898418;29;20529;-70
2023/01/31 00:06:49;;;;;;;0.70;0.50;;;5.50;99.90;;;;;;4896520;29;20838;-68
2023/01/31 00:09:18;;;;;;;0.53;0.33;;;5.50;99.90;;;;;;4907744;29;21007;-68
2023/01/31 00:11:46;;;;;;;0.50;0.10;;;5.40;99.90;;;;;;4901252;29;20991;-68
2023/01/31 00:14:18;;;;;;;0.50;0.20;;;5.50;99.90;;;;;;4896296;29;20474;-68
2023/01/31 00:16:47;;;;;;;0.83;0.40;;;5.40;99.90;;;;;;4896053;29;20829;-68
2023/01/31 00:19:16;;;;;;;0.70;0.50;;;5.40;99.90;;;;;;4896705;29;20949;-68
2023/01/31 00:21:44;;;;;;;9.83;0.73;;;5.30;99.90;;;;;;4885123;29;20463;-69
2023/01/31 00:24:13;;;;;;;5.50;1.53;;;5.20;99.90;;;;;;4878204;29;20486;-69
2023/01/31 00:26:41;;;;;;;0.50;0.20;;;5.20;99.90;;;;;;4878093;29;20450;-68
2023/01/31 00:29:09;;;;;;;3.53;1.63;;;5.20;99.90;;;;;;4882132;29;20470;-67
2023/01/31 00:31:37;;;;;;;0.87;0.30;;;5.10;99.90;;;;;;4896680;29;20813;-68
2023/01/31 00:34:06;;;;;;;1.57;0.47;;;5.10;99.90;;;;;;4896928;29;20567;-68
2023/01/31 00:36:35;;;;;;;4.77;0.53;;;5.10;99.90;;;;;;4896898;29;20453;-68
2023/01/31 00:39:06;;;;;;;0.50;0.10;;;5.10;99.90;;;;;;4899028;29;20457;-67
2023/01/31 00:41:35;;;;;;;0.60;0.40;;;5.10;99.90;;;;;;4895246;29;20463;-69
2023/01/31 00:44:05;;;;;;;0.60;0.30;;;5.10;99.90;;;;;;4878348;29;20508;-68
2023/01/31 00:46:33;;;;;;;2.40;0.60;;;5.10;99.90;;;;;;4878777;29;20834;-68
2023/01/31 00:49:02;;;;;;;0.50;0.10;;;5.10;99.90;;;;;;4882981;29;20863;-69
2023/01/31 00:51:30;;;;;;;1.00;0.40;;;5.10;99.90;;;;;;4896435;29;20952;-68
2023/01/31 00:53:59;;;;;;;1.03;0.93;;;5.10;99.90;;;;;;4896443;29;20916;-69
2023/01/31 00:56:27;;;;;;;5.23;0.83;;;5.00;99.90;;;;;;4896582;29;21035;-68
2023/01/31 00:58:55;;;;;;;0.93;0.93;;;;;;;;;;4892466;29;20506;-68
2023/01/31 05:00:40;;;;;;;0.50;0.10;;;4.70;85.40;;;;;;5870068;23;20902;-71
2023/01/31 05:03:08;;;;;;;0.50;0.10;;;4.70;85.80;;;;;;4911442;29;20484;-70
2023/01/31 05:05:36;;;;;;;0.50;0.10;;;4.60;94.70;;;;;;4918489;29;20446;-70
2023/01/31 05:08:04;;;;;;;0.60;0.50;;;4.60;93.50;;;;;;4914466;29;21015;-70
2023/01/31 05:10:34;;;;;;;0.50;0.10;;;4.50;92.70;;;;;;4916883;29;20504;-71
2023/01/31 05:13:02;;;;;;;0.60;0.10;;;4.50;96.80;;;;;;4911739;29;20447;-71
2023/01/31 05:15:31;;;;;;;0.50;0.10;;;4.50;98.00;;;;;;4910240;29;20447;-71
2023/01/31 05:18:02;;;;;;;0.50;0.20;;;4.50;98.80;;;;;;4910128;29;20744;-69
2023/01/31 05:20:33;;;;;;;0.50;0.20;;;4.40;95.00;;;;;;4911970;29;20438;-71
2023/01/31 05:23:02;;;;;;;2.80;0.63;;;4.30;98.70;;;;;;4911581;29;20831;-71
2023/01/31 05:25:30;;;;;;;2.30;0.73;;;4.20;95.80;;;;;;4910005;29;20457;-71
2023/01/31 05:27:59;;;;;;;2.10;1.90;;;4.30;96.40;;;;;;4912342;29;20939;-71
2023/01/31 05:30:27;;;;;;;0.80;0.47;;;;;;;;;;4914024;29;20520;-71
2023/01/31 05:32:55;;;;;;;0.53;0.27;;;4.20;97.90;;;;;;4922520;29;20465;-71
2023/01/31 05:35:24;;;;;;;1.90;1.03;;;4.20;99.90;;;;;;4923371;29;21170;-72
2023/01/31 05:37:53;;;;;;;2.43;2.23;;;4.20;97.20;;;;;;4922888;29;21011;-71
2023/01/31 05:40:22;;;;;;;0.50;0.20;;;4.10;99.90;;;;;;4915282;29;20451;-71
2023/01/31 05:42:54;;;;;;;0.50;0.10;;;4.20;97.60;;;;;;4920382;29;20473;-70
2023/01/31 05:45:22;;;;;;;1.50;1.40;;;4.20;97.40;;;;;;4922798;29;20447;-70
2023/01/31 05:47:50;;;;;;;0.67;0.60;;;4.20;97.40;;;;;;4919318;29;20463;-70
2023/01/31 05:50:19;;;;;;;0.60;0.20;;;4.10;97.30;;;;;;4922076;29;20473;-70
2023/01/31 05:52:52;;;;;;;0.50;0.17;;;4.10;97.00;;;;;;4916114;29;20469;-70
2023/01/31 05:55:21;;;;;;;0.87;0.40;;;4.00;97.70;;;;;;4912298;29;20997;-70
2023/01/31 05:57:50;;;;;;;0.50;0.13;;;4.00;99.90;;;;;;4919369;29;20448;-69
2023/01/31 06:00:18;;;;;;;1.33;1.23;;;4.00;99.90;;;;;;4916843;29;20446;-73
2023/01/31 06:02:46;;;;;;;0.60;0.20;;;4.00;99.90;;;;;;4912791;29;20477;-69
2023/01/31 06:05:15;;;;;;;4.87;1.03;;;4.00;99.90;;;;;;4918698;29;20503;-70
2023/01/31 06:07:43;;;;;;;0.50;0.10;;;3.90;99.90;;;;;;4926053;29;20452;-71
2023/01/31 06:10:13;;;;;;;1.60;0.30;;;3.80;99.90;;;;;;4918938;29;20489;-70
2023/01/31 06:12:42;;;;;;;16.43;3.90;;;3.90;99.90;;;;;;4912288;29;20904;-70
2023/01/31 06:15:10;;;;;;;0.70;0.30;;;3.80;99.90;;;;;;4911046;29;20455;-71
2023/01/31 06:17:38;;;;;;;4.93;0.97;;;3.80;99.90;;;;;;4910445;29;20959;-70
2023/01/31 06:20:07;;;;;;;0.50;0.10;;;3.70;99.90;;;;;;4917283;29;20444;-74
2023/01/31 06:22:34;;;;;;;0.80;0.50;;;3.70;99.90;;;;;;4923549;29;20473;-71
2023/01/31 06:25:03;;;;;;;0.60;0.40;;;3.70;99.90;;;;;;4931302;29;20480;-70
2023/01/31 06:27:33;;;;;;;0.50;0.10;;;;;;;;;;4933418;29;20455;-70
2023/01/31 06:30:01;;;;;;;2.80;1.90;;;3.70;99.90;;;;;;4925564;29;20496;-71
2023/01/31 06:32:30;;;;;;;0.50;0.20;;;3.70;99.90;;;;;;4925462;29;20524;-71
2023/01/31 06:34:59;;;;;;;1.73;0.70;;;;;;;;;;4917052;29;20450;-72
2023/01/31 06:37:26;;;;;;;0.50;0.20;;;3.70;99.90;;;;;;4925337;29;20615;-72
2023/01/31 06:39:54;;;;;;;0.50;0.10;;;3.70;99.90;;;;;;4917676;29;20467;-73
2023/01/31 06:42:22;;;;;;;0.60;0.37;;;3.70;99.90;;;;;;4924024;29;20477;-71
2023/01/31 06:44:51;;;;;;;0.57;0.30;;;3.70;99.90;;;;;;4926425;29;20459;-72
2023/01/31 06:47:19;;;;;;;3.40;1.40;;;3.70;99.90;;;;;;4935733;29;20445;-71
2023/01/31 06:49:47;;;;;;;0.50;0.10;;;3.80;99.90;;;;;;4927420;29;20499;-71
2023/01/31 06:52:15;;;;;;;0.60;0.60;;;3.80;99.90;;;;;;4925180;29;20473;-72
2023/01/31 06:54:43;;;;;;;0.50;0.10;;;3.90;99.90;;;;;;4925313;29;20848;-72
2023/01/31 06:57:11;;;;;;;0.50;0.20;;;3.90;99.90;;;;;;4922748;29;20464;-72
2023/01/31 06:59:39;;;;;;;0.60;0.20;;;3.90;99.90;;;;;;4921010;29;20486;-72
2023/01/31 07:02:09;;;;;;;1.63;1.20;;;3.80;99.90;;;;;;4920520;29;20509;-74
2023/01/31 07:04:37;;;;;;;0.50;0.10;;;3.80;99.90;;;;;;4928839;29;20452;-72
2023/01/31 07:07:05;;;;;;;1.83;1.73;;;3.80;99.90;;;;;;4925118;29;20524;-70
2023/01/31 07:09:33;;;;;;;0.50;0.20;;;3.80;99.90;;;;;;4926574;29;20453;-72
2023/01/31 07:12:03;;;;;;;2.03;0.40;;;3.80;99.90;;;;;;4911955;29;20499;-71
2023/01/31 07:14:34;;;;;;;0.50;0.10;;;3.70;99.90;;;;;;4907890;29;20464;-72
2023/01/31 07:17:04;;;;;;;1.27;1.17;;;3.70;99.90;;;;;;4906817;29;20536;-72
2023/01/31 07:19:34;;;;;;;0.70;0.57;;;3.70;99.90;;;;;;4909894;29;20463;-72
2023/01/31 07:22:02;;;;;;;0.50;0.10;;;;;;;;;;4923846;29;20827;-72
2023/01/31 07:24:30;;;;;;;0.67;0.33;;;3.80;99.90;;;;;;4922394;29;20466;-70
2023/01/31 07:26:57;;;;;;;2.10;0.77;;;3.80;99.90;;;;;;4914178;29;20485;-72
2023/01/31 07:29:25;;;;;;;0.50;0.10;;;3.80;99.90;;;;;;4920872;29;20463;-73
2023/01/31 07:31:55;;;;;;;0.50;0.40;;;3.80;99.90;;;;;;4904244;29;20500;-71
2023/01/31 07:34:23;;;;;;;0.93;0.67;;;3.80;99.90;;;;;;4908195;29;20456;-71
2023/01/31 07:36:52;;;;;;;0.50;0.10;;;3.80;99.90;;;;;;4921647;29;20948;-72
2023/01/31 07:39:20;;;;;;;1.67;1.03;;;3.80;99.90;;;;;;4921133;29;20489;-72
2023/01/31 07:41:48;;;;;;;0.73;0.53;;;3.80;99.90;;;;;;4922043;29;20484;-72
2023/01/31 07:44:16;;;;;;;11.93;4.30;;;3.80;99.90;;;;;;4921930;29;20465;-72
2023/01/31 07:46:44;;;;;;;0.87;0.87;;;3.90;99.90;;;;;;4923292;29;20476;-70
2023/01/31 07:49:12;;;;;;;0.60;0.30;;;3.90;99.90;;;;;;4922840;29;20463;-70
2023/01/31 07:51:40;;;;;;;0.50;0.17;;;4.00;99.90;;;;;;4925666;29;20498;-73
2023/01/31 07:54:11;;;;;;;0.50;0.10;;;4.00;99.90;;;;;;4922657;29;20445;-71
2023/01/31 07:56:39;;;;;;;0.50;0.20;;;4.10;99.90;;;;;;4924027;29;20456;-71
2023/01/31 07:59:07;;;;;;;0.50;0.10;;;;;;;;;;4923921;29;20449;-71
2023/01/31 08:04:21;;;;;;;0.50;0.10;;;4.60;99.90;;;;;;4919182;29;20457;-71
2023/01/31 08:06:53;;;;;;;0.50;0.10;;;4.70;99.90;;;;;;4925247;29;20485;-72
2023/01/31 08:09:23;;;;;;;0.50;0.10;;;4.70;99.20;;;;;;4914240;29;20533;-72
2023/01/31 08:11:51;;;;;;;0.50;0.10;;;4.70;96.30;;;;;;4908205;29;20492;-73
2023/01/31 08:14:24;;;;;;;0.50;0.10;;;4.70;98.60;;;;;;4906271;29;20449;-71
2023/01/31 08:16:53;;;;;;;0.50;0.10;;;4.70;91.00;;;;;;4906448;29;20438;-73
2023/01/31 08:19:21;;;;;;;0.50;0.10;;;4.70;91.00;;;;;;4907170;29;20537;-70
2023/01/31 08:21:49;;;;;;;0.50;0.10;;;4.80;90.40;;;;;;4918856;29;20476;-71
2023/01/31 08:24:17;;;;;;;0.50;0.30;;;4.80;89.00;;;;;;4924529;29;20460;-72
2023/01/31 08:26:46;;;;;;;0.50;0.10;;;4.80;93.10;;;;;;4925424;29;20452;-71
2023/01/31 08:29:14;;;;;;;0.50;0.10;;;4.80;92.70;;;;;;4917518;29;20540;-72
2023/01/31 08:31:43;;;;;;;0.50;0.10;;;4.80;86.00;;;;;;4916086;29;20484;-74
2023/01/31 08:34:11;;;;;;;0.50;0.10;;;4.80;91.10;;;;;;4924905;29;20480;-73
2023/01/31 08:36:39;;;;;;;0.50;0.20;;;4.80;82.80;;;;;;4913149;29;20482;-72
2023/01/31 08:39:08;;;;;;;3.23;2.30;;;;;;;;;;4911024;29;20640;-75
2023/01/31 08:41:37;;;;;;;0.50;0.10;;;4.60;77.20;;;;;;4924563;29;20471;-73
2023/01/31 08:44:06;;;;;;;0.70;0.57;;;4.60;82.20;;;;;;4926233;29;20539;-72
2023/01/31 08:46:36;;;;;;;0.70;0.40;;;4.60;90.30;;;;;;4927325;29;20469;-74
2023/01/31 08:49:06;;;;;;;0.60;0.40;;;4.50;91.30;;;;;;4916149;29;20969;-72
2023/01/31 08:51:34;;;;;;;3.63;2.53;;;4.50;87.00;;;;;;4930635;29;20505;-73
2023/01/31 08:54:02;;;;;;;2.93;0.53;;;4.30;87.50;;;;;;4923012;29;20508;-72
2023/01/31 08:56:30;;;;;;;1.40;1.30;;;4.30;93.10;;;;;;4917412;29;20441;-72
2023/01/31 08:58:58;;;;;;;1.97;0.83;;;4.30;95.60;;;;;;4924913;29;20858;-73
2023/01/31 09:01:28;;;;;;;2.50;2.10;;;;;;;;;;4925819;29;20577;-73
2023/01/31 09:03:56;;;;;;;0.93;0.83;;;4.00;97.50;;;;;;4931269;29;20833;-72
2023/01/31 09:06:26;;;;;;;1.13;0.87;;;4.00;99.90;;;;;;4924505;29;20455;-73
2023/01/31 09:08:56;;;;;;;4.40;0.83;;;4.10;99.90;;;;;;4924333;29;20453;-73
2023/01/31 09:11:28;;;;;;;1.83;1.70;;;4.10;99.90;;;;;;4920644;29;21084;-73
2023/01/31 09:13:57;;;;;;;0.50;0.10;;;4.10;99.90;;;;;;4926130;29;20498;-73
2023/01/31 09:16:28;;;;;;;1.33;1.23;;;4.20;99.90;;;;;;4920654;29;20437;-73
2023/01/31 09:18:59;;;;;;;0.60;0.30;;;;;;;;;;4912206;29;20445;-73
2023/01/31 09:21:27;;;;;;;0.50;0.20;;;4.20;99.90;;;;;;4919686;29;20459;-73
2023/01/31 09:23:56;;;;;;;3.07;1.40;;;4.30;99.90;;;;;;4924293;29;20532;-73
2023/01/31 09:26:25;;;;;;;3.33;1.47;;;4.20;99.90;;;;;;4921828;29;20488;-71
2023/01/31 09:28:54;;;;;;;0.50;0.30;;;4.20;99.90;;;;;;4927993;29;20452;-72
2023/01/31 09:31:22;;;;;;;0.50;0.10;;;4.20;99.90;;;;;;4914176;29;20469;-73
2023/01/31 09:33:53;;;;;;;5.70;2.97;;;4.30;99.90;;;;;;4916765;29;20486;-73
2023/01/31 09:36:23;;;;;;;2.03;1.30;;;4.30;99.90;;;;;;4913341;29;20484;-73
2023/01/31 09:38:54;;;;;;;1.23;0.83;;;4.30;99.90;;;;;;4919844;29;20452;-72
2023/01/31 09:41:27;;;;;;;1.43;1.33;;;4.10;99.90;;;;;;4932752;29;20492;-73
2023/01/31 09:44:00;;;;;;;0.70;0.70;;;4.10;99.90;;;;;;4921487;29;20448;-74
2023/01/31 09:46:34;;;;;;;1.70;1.17;;;4.00;99.90;;;;;;4914476;29;20501;-72
2023/01/31 09:49:10;;;;;;;0.80;0.70;;;4.00;99.90;;;;;;4915402;29;20455;-73
2023/01/31 09:51:39;;;;;;;2.23;1.67;;;4.10;99.90;;;;;;4918774;29;20527;-73
2023/01/31 09:54:19;;;;;;;9.80;8.97;;;4.10;99.90;;;;;;4917696;29;20434;-73
2023/01/31 09:56:57;;;;;;;2.73;2.30;;;4.20;99.90;;;;;;4924123;29;20445;-72
2023/01/31 09:59:32;;;;;;;0.50;0.20;;;4.20;99.90;;;;;;4916659;29;20467;-72
2023/01/31 10:02:11;;;;;;;0.50;0.10;;;4.40;99.90;;;;;;4917500;29;20486;-72
2023/01/31 10:05:04;;;;;;;0.50;0.10;;;4.40;99.90;;;;;;4922288;29;20524;-71
2023/01/31 10:07:36;;;;;;;0.50;0.10;;;4.60;99.90;;;;;;4924082;29;20457;-72
2023/01/31 10:10:14;;;;;;;1.67;1.57;;;4.70;99.90;;;;;;4922538;29;20449;-71
2023/01/31 10:12:46;;;;;;;0.50;0.20;;;4.70;99.90;;;;;;4919873;29;20486;-73
2023/01/31 10:15:21;;;;;;;4.30;2.03;;;4.70;99.90;;;;;;4907097;29;20461;-73
2023/01/31 10:17:55;;;;;;;0.80;0.57;;;4.60;99.90;;;;;;4907650;29;20449;-73
2023/01/31 10:20:34;;;;;;;3.43;2.00;;;4.50;99.90;;;;;;4906359;29;20871;-73
2023/01/31 10:23:06;;;;;;;5.33;1.97;;;4.50;99.90;;;;;;4911022;29;20451;-72
2023/01/31 10:25:40;;;;;;;3.90;1.13;;;4.50;99.90;;;;;;4913009;29;20461;-72
2023/01/31 10:28:13;;;;;;;10.37;3.30;;;4.50;99.90;;;;;;4913159;29;20449;-72
2023/01/31 10:30:45;;;;;;;0.50;0.20;;;4.40;99.90;;;;;;4912792;29;20916;-73
2023/01/31 10:33:23;;;;;;;1.70;1.23;;;4.40;99.90;;;;;;4914640;29;20898;-72
2023/01/31 10:35:56;;;;;;;5.50;0.93;;;4.40;99.90;;;;;;4913157;29;20456;-73
2023/01/31 10:38:29;;;;;;;0.93;0.93;;;4.40;99.90;;;;;;4917137;29;20944;-70
2023/01/31 10:41:06;;;;;;;0.60;0.50;;;4.40;99.90;;;;;;4912227;29;20470;-72
2023/01/31 10:43:39;;;;;;;7.37;1.87;;;4.30;99.90;;;;;;4914661;29;20465;-73
2023/01/31 10:46:11;;;;;;;3.50;2.77;;;4.30;99.90;;;;;;4919832;29;20481;-73
2023/01/31 10:48:42;;;;;;;3.63;1.00;;;4.20;99.90;;;;;;4909668;29;20523;-73
2023/01/31 10:51:29;;;;;;;5.60;1.47;;;4.30;99.90;;;;;;4906095;29;20952;-72
2023/01/31 10:54:11;;;;;;;2.03;1.93;;;4.30;99.90;;;;;;4919000;29;20567;-73
2023/01/31 10:56:43;;;;;;;9.50;3.13;;;4.30;99.90;;;;;;4906554;29;20434;-72
2023/01/31 10:59:22;;;;;;;1.97;1.77;;;4.30;99.90;;;;;;4905266;29;20450;-73
2023/01/31 11:01:51;;;;;;;10.50;3.63;;;4.40;99.90;;;;;;4901964;29;20580;-73
2023/01/31 11:04:30;;;;;;;1.57;0.63;;;4.40;99.90;;;;;;4912097;29;20500;-71
2023/01/31 11:07:01;;;;;;;1.83;0.67;;;4.40;99.90;;;;;;4912456;29;20978;-73
2023/01/31 11:09:34;;;;;;;4.00;2.90;;;4.50;99.90;;;;;;4921961;29;20458;-72
2023/01/31 11:12:04;;;;;;;14.70;3.60;;;4.50;99.90;;;;;;4917847;29;20465;-73
2023/01/31 11:14:32;;;;;;;7.03;4.97;;;4.50;99.90;;;;;;4910524;29;20481;-71
2023/01/31 11:17:04;;;;;;;5.67;2.53;;;4.50;99.90;;;;;;4910888;29;20445;-71
2023/01/31 11:19:37;;;;;;;1.67;0.83;;;4.50;99.90;;;;;;4919145;29;20473;-73
2023/01/31 11:22:07;;;;;;;2.40;1.37;;;4.60;99.90;;;;;;4915543;29;20460;-72
2023/01/31 11:24:40;;;;;;;3.83;1.63;;;4.70;99.90;;;;;;4913445;29;20501;-74
2023/01/31 11:27:12;;;;;;;2.00;0.97;;;4.60;99.90;;;;;;4914492;29;20476;-72
2023/01/31 11:29:44;;;;;;;1.77;0.57;;;4.60;99.90;;;;;;4905084;29;20537;-73
2023/01/31 11:32:20;;;;;;;3.37;2.53;;;4.60;99.90;;;;;;4906378;29;20475;-73
2023/01/31 11:34:56;;;;;;;0.70;0.57;;;4.70;99.90;;;;;;4919997;29;20440;-73
2023/01/31 11:37:27;;;;;;;0.50;0.30;;;4.70;99.90;;;;;;4914351;29;20457;-73
2023/01/31 11:39:57;;;;;;;1.43;1.20;;;4.80;99.90;;;;;;4908971;29;20445;-72
2023/01/31 11:42:25;;;;;;;0.50;0.10;;;4.80;99.90;;;;;;4909451;29;20970;-72
2023/01/31 11:44:59;;;;;;;0.50;0.10;;;4.80;99.90;;;;;;4913553;29;20447;-71
2023/01/31 11:47:40;;;;;;;1.50;1.10;;;4.90;99.90;;;;;;4908749;29;20457;-72
2023/01/31 11:50:19;;;;;;;0.60;0.30;;;5.00;99.90;;;;;;4903722;29;20449;-73
2023/01/31 11:52:55;;;;;;;9.53;2.63;;;5.10;99.90;;;;;;4918671;29;20490;-73
2023/01/31 11:55:23;;;;;;;1.73;1.33;;;5.10;99.90;;;;;;4918383;29;20453;-71
2023/01/31 11:57:57;;;;;;;1.10;0.60;;;5.00;99.90;;;;;;4910287;29;20464;-71
2023/01/31 12:00:27;;;;;;;22.90;3.40;;;5.00;99.90;;;;;;4918591;29;20514;-73
2023/01/31 12:03:02;;;;;;;7.10;1.40;;;5.10;99.90;;;;;;4919350;29;20464;-71
2023/01/31 12:05:38;;;;;;;2.10;1.90;;;5.10;99.90;;;;;;4927651;29;20449;-72
2023/01/31 12:08:28;;;;;;;3.70;1.33;;;5.10;99.90;;;;;;4931021;29;20444;-72
2023/01/31 12:10:57;;;;;;;0.70;0.40;;;5.20;99.90;;;;;;4917726;29;21004;-73
2023/01/31 12:13:27;;;;;;;1.37;1.20;;;5.20;99.90;;;;;;4918390;29;20479;-73
2023/01/31 12:15:58;;;;;;;0.50;0.10;;;5.30;99.90;;;;;;4921860;29;20452;-72
2023/01/31 12:18:57;;;;;;;1.07;1.00;;;5.20;99.90;;;;;;4920551;29;20457;-73
2023/01/31 12:21:37;;;;;;;8.70;1.77;;;5.20;99.90;;;;;;4925189;29;20484;-72
2023/01/31 12:24:15;;;;;;;2.27;1.20;;;5.30;99.90;;;;;;4916522;29;20453;-72
2023/01/31 12:26:48;;;;;;;0.87;0.87;;;5.20;99.90;;;;;;4912904;29;20517;-72
2023/01/31 12:29:37;;;;;;;5.30;2.30;;;5.20;99.90;;;;;;4900540;29;20465;-73
2023/01/31 12:32:33;;;;;;;1.43;0.50;;;5.20;99.90;;;;;;4919853;29;20466;-72
2023/01/31 12:35:20;;;;;;;2.87;1.57;;;5.20;99.90;;;;;;4913661;29;20489;-73
2023/01/31 12:37:58;;;;;;;0.50;0.10;;;5.40;99.90;;;;;;4900818;29;20449;-72
2023/01/31 12:40:40;;;;;;;0.60;0.20;;;5.50;99.90;;;;;;4898921;29;20478;-72
2023/01/31 12:43:24;;;;;;;0.50;0.10;;;5.50;99.90;;;;;;4910190;29;20456;-72
2023/01/31 12:46:08;;;;;;;0.50;0.20;;;5.60;99.90;;;;;;4918362;29;20448;-71
2023/01/31 12:48:50;;;;;;;1.67;0.80;;;5.50;99.90;;;;;;4918553;29;20456;-72
2023/01/31 12:51:32;;;;;;;0.50;0.10;;;5.50;99.90;;;;;;4919927;29;20504;-72
2023/01/31 12:54:17;;;;;;;10.10;5.93;;;5.60;99.90;;;;;;4919687;29;20486;-73
2023/01/31 12:57:04;;;;;;;1.07;0.97;;;5.60;99.90;;;;;;4926505;29;20437;-75
2023/01/31 12:59:44;;;;;;;0.70;0.67;;;5.70;99.90;;;;;;4933786;29;20698;-72
2023/01/31 13:02:27;;;;;;;1.00;0.70;;;5.70;99.90;;;;;;4900682;29;20568;-71
2023/01/31 13:04:59;;;;;;;1.90;0.63;;;7.40;99.90;;;;;;4904672;29;20445;-72
2023/01/31 13:07:34;;;;;;;0.50;0.10;;;5.60;99.90;;;;;;4909102;29;20456;-71
2023/01/31 13:10:06;;;;;;;6.20;1.70;;;5.60;99.90;;;;;;4922985;29;20462;-73
2023/01/31 13:12:39;;;;;;;0.60;0.47;;;5.60;99.90;;;;;;4927444;29;20475;-72
2023/01/31 13:15:15;;;;;;;0.70;0.63;;;5.60;99.90;;;;;;4920887;29;20492;-71
2023/01/31 13:17:44;;;;;;;4.67;1.43;;;5.70;99.90;;;;;;4911780;29;20487;-72
2023/01/31 13:20:25;;;;;;;1.40;1.30;;;5.70;99.90;;;;;;4917846;29;20546;-72
2023/01/31 13:22:55;;;;;;;0.60;0.37;;;5.60;99.90;;;;;;4919231;29;20483;-71
2023/01/31 13:25:30;;;;;;;0.73;0.73;;;5.50;99.90;;;;;;4920927;29;20460;-73
2023/01/31 13:28:03;;;;;;;0.90;0.80;;;5.50;99.90;;;;;;4920157;29;20469;-73
2023/01/31 13:30:38;;;;;;;1.50;1.17;;;5.60;99.90;;;;;;4920738;29;20445;-73
2023/01/31 13:33:18;;;;;;;2.20;1.27;;;5.50;99.90;;;;;;4917071;29;20485;-73
2023/01/31 13:35:52;;;;;;;1.33;1.23;;;5.60;99.90;;;;;;4902980;29;20449;-73
2023/01/31 13:38:22;;;;;;;2.10;1.90;;;5.60;99.90;;;;;;4903000;29;20444;-73
2023/01/31 13:40:52;;;;;;;4.33;2.13;;;5.70;99.90;;;;;;4905664;29;20560;-73
2023/01/31 13:43:22;;;;;;;4.87;2.60;;;5.60;99.90;;;;;;4908025;29;20450;-72
2023/01/31 13:45:55;;;;;;;0.50;0.10;;;5.60;99.90;;;;;;4922238;29;20469;-73
2023/01/31 13:48:29;;;;;;;1.03;0.93;;;5.70;99.90;;;;;;4921890;29;20814;-73
2023/01/31 13:51:01;;;;;;;1.03;1.03;;;5.70;99.90;;;;;;4924101;29;21005;-73
2023/01/31 13:53:33;;;;;;;2.67;2.47;;;5.70;99.90;;;;;;4922128;29;20452;-72
2023/01/31 13:56:03;;;;;;;1.90;1.27;;;5.80;99.90;;;;;;4924805;29;20832;-73
2023/01/31 13:58:34;;;;;;;0.50;0.20;;;5.80;99.90;;;;;;4930376;29;20449;-73
2023/01/31 14:01:06;;;;;;;1.23;0.93;;;5.80;99.90;;;;;;4912059;29;20481;-73
2023/01/31 14:04:26;;;;;;;0.60;0.30;;;5.80;99.90;;;;;;4923733;29;20461;-72
2023/01/31 14:07:24;;;;;;;1.80;1.70;;;5.80;99.90;;;;;;4921483;29;20450;-72
2023/01/31 14:10:28;;;;;;;9.87;2.67;;;5.80;99.90;;;;;;4915829;29;21008;-74
2023/01/31 14:13:26;;;;;;;1.90;1.17;;;5.80;99.90;;;;;;4903555;29;20487;-73
2023/01/31 14:15:55;;;;;;;3.50;1.80;;;5.80;99.90;;;;;;4917973;29;20480;-73
2023/01/31 14:18:40;;;;;;;3.33;1.20;;;5.70;99.90;;;;;;4920323;29;20485;-73
2023/01/31 14:21:53;;;;;;;0.70;0.63;;;5.80;99.90;;;;;;4919035;29;21047;-73
2023/01/31 14:25:04;;;;;;;0.93;0.60;;;5.80;99.90;;;;;;4913928;29;20455;-71
2023/01/31 14:27:53;;;;;;;13.83;2.33;;;5.70;99.90;;;;;;4929204;29;20441;-71
2023/01/31 14:30:34;;;;;;;2.97;2.20;;;5.70;99.90;;;;;;4922594;29;20445;-73
2023/01/31 14:33:14;;;;;;;2.10;1.93;;;5.50;99.90;;;;;;4928111;29;20441;-73
2023/01/31 14:36:22;;;;;;;5.40;1.33;;;5.50;99.90;;;;;;4924444;29;20484;-71
2023/01/31 14:39:22;;;;;;;1.37;1.27;;;5.40;99.90;;;;;;4922726;29;20436;-73
2023/01/31 14:42:28;;;;;;;2.50;1.27;;;5.40;99.90;;;;;;4917179;29;21016;-71
2023/01/31 14:45:11;;;;;;;2.27;1.27;;;5.40;99.90;;;;;;4894970;29;20449;-71
2023/01/31 14:47:58;;;;;;;3.00;1.23;;;5.40;99.90;;;;;;4920018;29;20461;-72
2023/01/31 14:50:45;;;;;;;2.60;0.90;;;5.40;99.90;;;;;;4900879;29;20514;-72
2023/01/31 14:53:32;;;;;;;15.37;3.00;;;5.40;99.90;;;;;;4910577;29;20449;-72
2023/01/31 14:56:19;;;;;;;10.50;3.10;;;5.30;99.90;;;;;;4912239;29;20489;-71
2023/01/31 14:58:48;;;;;;;3.27;2.23;;;5.30;99.90;;;;;;4900732;29;20453;-71
2023/01/31 15:01:22;;;;;;;1.43;1.33;;;5.30;99.90;;;;;;4919600;29;20482;-71
2023/01/31 15:03:53;;;;;;;4.80;2.93;;;5.30;99.90;;;;;;4907850;29;20546;-71
2023/01/31 15:06:26;;;;;;;2.20;1.27;;;5.30;1.00;;;;;;4902599;29;20454;-70
2023/01/31 15:09:09;;;;;;;8.60;7.93;;;;;;;;;;4903506;29;20584;-72
2023/01/31 15:11:45;;;;;;;1.27;1.07;;;5.40;1.00;;;;;;4906838;29;20512;-71
2023/01/31 15:14:40;;;;;;;1.73;1.63;;;5.40;1.00;;;;;;4905805;29;20481;-72
2023/01/31 15:17:14;;;;;;;5.27;1.80;;;5.40;1.00;;;;;;4922094;29;20539;-71
2023/01/31 15:20:13;;;;;;;0.50;0.10;;;5.40;1.00;;;;;;4913855;29;20563;-71
2023/01/31 15:22:44;;;;;;;1.43;1.07;;;5.40;1.00;;;;;;4916245;29;20475;-71
2023/01/31 15:25:23;;;;;;;0.77;0.57;;;5.40;1.00;;;;;;4915819;29;20450;-71
2023/01/31 15:27:52;;;;;;;0.50;0.10;;;5.40;1.00;;;;;;4913411;29;20442;-72
2023/01/31 15:30:22;;;;;;;0.50;0.10;;;5.60;1.00;;;;;;4911056;29;20457;-71
2023/01/31 15:32:56;;;;;;;1.87;0.77;;;5.50;1.00;;;;;;4909213;29;20483;-73
2023/01/31 15:35:29;;;;;;;1.83;0.97;;;5.60;1.00;;;;;;4907350;29;20544;-71
2023/01/31 15:38:03;;;;;;;2.53;2.30;;;5.60;1.00;;;;;;4913009;29;20463;-72
2023/01/31 15:40:32;;;;;;;2.13;1.70;;;5.60;1.00;;;;;;4910467;29;20507;-71
2023/01/31 15:43:15;;;;;;;1.13;0.97;;;5.60;1.00;;;;;;4908903;29;20442;-72
2023/01/31 15:45:44;;;;;;;0.50;0.10;;;;;;;;;;4915719;29;21246;-73
2023/01/31 15:48:17;;;;;;;3.47;3.27;;;5.60;1.00;;;;;;4919160;29;20452;-71
2023/01/31 15:50:53;;;;;;;1.17;0.93;;;5.60;1.00;;;;;;4920345;29;20465;-72
2023/01/31 15:53:23;;;;;;;1.00;0.63;;;5.60;1.00;;;;;;4918948;29;20467;-72
2023/01/31 15:55:54;;;;;;;7.10;2.87;;;5.60;1.00;;;;;;4899457;29;20490;-73
2023/01/31 15:58:25;;;;;;;4.63;2.43;;;5.50;1.00;;;;;;4912229;29;20441;-73
2023/01/31 16:00:55;;;;;;;2.87;1.03;;;5.60;1.00;;;;;;4921366;29;20509;-73
2023/01/31 16:03:27;;;;;;;1.17;1.07;;;5.60;1.00;;;;;;4922284;29;20956;-74
2023/01/31 16:05:57;;;;;;;0.80;0.77;;;5.60;1.00;;;;;;4921052;29;20489;-72
2023/01/31 16:08:32;;;;;;;2.70;1.40;;;5.60;1.00;;;;;;4918737;29;20439;-73
2023/01/31 16:11:03;;;;;;;2.93;2.03;;;5.60;1.00;;;;;;4921390;29;20482;-73
2023/01/31 16:13:34;;;;;;;6.20;3.10;;;5.60;1.00;;;;;;4918023;29;20464;-75
2023/01/31 16:16:04;;;;;;;0.70;0.50;;;5.60;1.00;;;;;;4917566;29;20488;-72
2023/01/31 16:18:35;;;;;;;0.80;0.53;;;5.70;1.00;;;;;;4918596;29;20481;-70
2023/01/31 16:21:15;;;;;;;7.83;3.73;;;5.60;99.90;;;;;;4954674;23;20507;-74
2023/01/31 16:23:43;;;;;;;3.07;1.93;;;5.60;99.90;;;;;;4934951;29;20482;-75
2023/01/31 16:26:15;;;;;;;2.53;2.10;;;5.60;1.00;;;;;;4939476;29;20462;-75
2023/01/31 16:28:45;;;;;;;32.63;4.23;;;5.50;1.00;;;;;;4934882;29;20587;-75
2023/01/31 16:31:27;;;;;;;0.60;0.33;;;5.70;99.90;;;;;;4932647;29;20847;-76
2023/01/31 16:33:59;;;;;;;8.33;1.03;;;5.70;99.90;;;;;;4925656;29;20447;-75
2023/01/31 16:36:30;;;;;;;1.37;0.93;;;5.70;99.90;;;;;;4924472;29;20488;-74
2023/01/31 16:39:01;;;;;;;1.57;1.40;;;5.70;99.90;;;;;;4913486;29;20460;-74
2023/01/31 16:41:40;;;;;;;3.87;1.43;;;5.70;99.90;;;;;;4907275;29;20476;-73
2023/01/31 16:44:13;;;;;;;1.70;1.03;;;5.70;99.90;;;;;;4911260;29;20459;-76
2023/01/31 16:46:44;;;;;;;1.30;1.10;;;5.70;99.90;;;;;;4925006;29;20537;-76
2023/01/31 16:49:22;;;;;;;3.73;1.80;;;5.70;99.90;;;;;;4926957;29;20444;-76
2023/01/31 16:51:51;;;;;;;3.60;2.53;;;5.70;99.90;;;;;;4941940;29;20473;-76
2023/01/31 16:54:24;;;;;;;7.73;2.60;;;5.70;99.90;;;;;;4926450;29;20456;-74
2023/01/31 16:57:21;;;;;;;8.23;1.13;;;5.70;99.90;;;;;;4921630;29;20481;-75
2023/01/31 16:59:51;;;;;;;2.00;1.80;;;5.70;99.90;;;;;;4908800;29;20454;-76
2023/01/31 17:02:25;;;;;;;2.20;2.07;;;5.70;99.90;;;;;;4913373;29;20504;-74
2023/01/31 17:04:57;;;;;;;0.60;0.40;;;5.70;99.90;;;;;;4919888;29;20484;-75
2023/01/31 17:07:28;;;;;;;2.23;2.03;;;5.70;99.90;;;;;;4930314;29;20445;-74
2023/01/31 17:09:59;;;;;;;5.67;1.30;;;5.70;99.90;;;;;;4931540;29;20539;-74
2023/01/31 17:12:29;;;;;;;0.90;0.77;;;5.70;99.90;;;;;;4930768;29;20472;-75
2023/01/31 17:14:58;;;;;;;1.83;1.73;;;5.70;99.90;;;;;;4931222;29;20478;-74
2023/01/31 17:17:32;;;;;;;2.30;0.77;;;5.70;99.90;;;;;;4931191;29;20488;-75
2023/01/31 17:20:02;;;;;;;1.47;1.07;;;5.80;99.90;;;;;;4929665;29;20449;-75
2023/01/31 17:22:30;;;;;;;1.57;0.97;;;5.80;99.90;;;;;;4919537;29;20492;-75
2023/01/31 17:24:58;;;;;;;1.93;0.70;;;5.80;99.90;;;;;;4920667;29;20449;-74
2023/01/31 17:27:28;;;;;;;0.50;0.20;;;5.80;99.90;;;;;;4935510;29;20647;-74
2023/01/31 17:29:55;;;;;;;10.87;0.80;;;5.90;99.90;;;;;;4947115;29;20444;-75
2023/01/31 17:32:23;;;;;;;1.37;1.27;;;5.90;99.90;;;;;;4946296;29;20463;-75
2023/01/31 17:34:51;;;;;;;0.70;0.70;;;5.90;99.90;;;;;;4935555;29;20445;-76